sensor_id;sensor_type;location;lat;lon;timestamp;P1;durP1;ratioP1;P2;durP2;ratioP2
908;SDS011;441;51.192;6.788;2024-01-30T00:02:12;7.70;;;7.40;;
908;SDS011;441;51.192;6.788;2024-01-30T00:04:39;7.90;;;7.60;;
908;SDS011;441;51.192;6.788;2024-01-30T00:07:06;8.13;;;7.73;;
908;SDS011;441;51.192;6.788;2024-01-30T00:09:33;7.20;;;6.97;;
908;SDS011;441;51.192;6.788;2024-01-30T00:12:01;7.50;;;7.20;;
908;SDS011;441;51.192;6.788;2024-01-30T00:14:28;7.50;;;7.30;;
908;SDS011;441;51.192;6.788;2024-01-30T00:16:55;8.27;;;7.77;;
908;SDS011;441;51.192;6.788;2024-01-30T00:19:22;6.90;;;6.60;;
908;SDS011;441;51.192;6.788;2024-01-30T00:21:49;7.90;;;7.50;;
908;SDS011;441;51.192;6.788;2024-01-30T00:24:16;7.10;;;6.90;;
908;SDS011;441;51.192;6.788;2024-01-30T00:26:43;8.07;;;7.70;;
908;SDS011;441;51.192;6.788;2024-01-30T00:29:11;7.43;;;7.23;;
908;SDS011;441;51.192;6.788;2024-01-30T00:31:44;7.53;;;7.23;;
908;SDS011;441;51.192;6.788;2024-01-30T00:34:11;7.20;;;7.00;;
908;SDS011;441;51.192;6.788;2024-01-30T00:36:38;8.17;;;7.77;;
908;SDS011;441;51.192;6.788;2024-01-30T00:39:05;7.80;;;7.50;;
908;SDS011;441;51.192;6.788;2024-01-30T00:41:34;7.97;;;7.67;;
908;SDS011;441;51.192;6.788;2024-01-30T00:44:00;7.17;;;6.90;;
908;SDS011;441;51.192;6.788;2024-01-30T00:46:29;8.10;;;7.70;;
908;SDS011;441;51.192;6.788;2024-01-30T00:48:56;8.00;;;7.70;;
908;SDS011;441;51.192;6.788;2024-01-30T00:51:22;8.50;;;8.20;;
908;SDS011;441;51.192;6.788;2024-01-30T00:53:50;7.70;;;7.40;;
908;SDS011;441;51.192;6.788;2024-01-30T00:56:16;7.57;;;7.37;;
908;SDS011;441;51.192;6.788;2024-01-30T00:58:44;8.13;;;7.73;;
908;SDS011;441;51.192;6.788;2024-01-30T01:01:11;7.60;;;7.30;;
908;SDS011;441;51.192;6.788;2024-01-30T01:03:39;7.23;;;7.03;;
908;SDS011;441;51.192;6.788;2024-01-30T01:06:08;8.17;;;7.77;;
908;SDS011;441;51.192;6.788;2024-01-30T01:08:35;8.53;;;8.10;;
908;SDS011;441;51.192;6.788;2024-01-30T01:11:02;8.90;;;8.53;;
908;SDS011;441;51.192;6.788;2024-01-30T01:13:29;7.00;;;6.70;;
908;SDS011;441;51.192;6.788;2024-01-30T01:15:56;7.83;;;7.53;;
908;SDS011;441;51.192;6.788;2024-01-30T01:18:23;6.80;;;6.60;;
908;SDS011;441;51.192;6.788;2024-01-30T01:20:51;7.67;;;7.37;;
908;SDS011;441;51.192;6.788;2024-01-30T01:23:18;7.70;;;7.40;;
908;SDS011;441;51.192;6.788;2024-01-30T01:25:45;7.57;;;7.27;;
908;SDS011;441;51.192;6.788;2024-01-30T01:28:12;8.30;;;8.00;;
908;SDS011;441;51.192;6.788;2024-01-30T01:30:39;7.30;;;7.00;;
908;SDS011;441;51.192;6.788;2024-01-30T01:33:06;8.57;;;8.17;;
908;SDS011;441;51.192;6.788;2024-01-30T01:35:33;7.50;;;7.20;;
908;SDS011;441;51.192;6.788;2024-01-30T01:38:01;8.10;;;7.87;;
908;SDS011;441;51.192;6.788;2024-01-30T01:40:28;7.97;;;7.67;;
908;SDS011;441;51.192;6.788;2024-01-30T01:42:55;7.87;;;7.47;;
908;SDS011;441;51.192;6.788;2024-01-30T01:45:22;8.13;;;7.83;;
908;SDS011;441;51.192;6.788;2024-01-30T01:47:50;7.70;;;7.40;;
908;SDS011;441;51.192;6.788;2024-01-30T01:50:17;9.40;;;8.70;;
908;SDS011;441;51.192;6.788;2024-01-30T01:52:46;8.90;;;8.60;;
908;SDS011;441;51.192;6.788;2024-01-30T01:55:15;8.40;;;8.00;;
908;SDS011;441;51.192;6.788;2024-01-30T01:57:43;7.80;;;7.60;;
908;SDS011;441;51.192;6.788;2024-01-30T02:00:11;7.97;;;7.63;;
908;SDS011;441;51.192;6.788;2024-01-30T02:02:39;8.17;;;7.77;;
908;SDS011;441;51.192;6.788;2024-01-30T02:05:07;8.03;;;7.70;;
908;SDS011;441;51.192;6.788;2024-01-30T02:07:34;8.23;;;7.93;;
908;SDS011;441;51.192;6.788;2024-01-30T02:10:01;7.20;;;7.00;;
908;SDS011;441;51.192;6.788;2024-01-30T02:12:31;7.80;;;7.50;;
908;SDS011;441;51.192;6.788;2024-01-30T02:14:58;8.20;;;7.50;;
908;SDS011;441;51.192;6.788;2024-01-30T02:17:25;7.60;;;7.30;;
908;SDS011;441;51.192;6.788;2024-01-30T02:19:52;7.90;;;7.60;;
908;SDS011;441;51.192;6.788;2024-01-30T02:22:20;8.60;;;8.00;;
908;SDS011;441;51.192;6.788;2024-01-30T02:24:48;8.13;;;7.57;;
908;SDS011;441;51.192;6.788;2024-01-30T02:27:15;8.00;;;7.70;;
908;SDS011;441;51.192;6.788;2024-01-30T02:29:42;8.07;;;7.77;;
908;SDS011;441;51.192;6.788;2024-01-30T02:32:09;8.03;;;7.80;;
908;SDS011;441;51.192;6.788;2024-01-30T02:34:36;8.63;;;8.10;;
908;SDS011;441;51.192;6.788;2024-01-30T02:37:03;8.13;;;7.83;;
908;SDS011;441;51.192;6.788;2024-01-30T02:39:31;8.20;;;7.80;;
908;SDS011;441;51.192;6.788;2024-01-30T02:41:58;7.40;;;7.20;;
908;SDS011;441;51.192;6.788;2024-01-30T02:44:25;8.57;;;8.17;;
908;SDS011;441;51.192;6.788;2024-01-30T02:46:52;7.67;;;7.37;;
908;SDS011;441;51.192;6.788;2024-01-30T02:49:20;8.20;;;7.90;;
908;SDS011;441;51.192;6.788;2024-01-30T02:51:47;8.07;;;7.77;;
908;SDS011;441;51.192;6.788;2024-01-30T02:54:14;8.20;;;7.80;;
908;SDS011;441;51.192;6.788;2024-01-30T02:56:42;8.23;;;7.93;;
908;SDS011;441;51.192;6.788;2024-01-30T02:59:09;9.80;;;9.50;;
908;SDS011;441;51.192;6.788;2024-01-30T03:01:42;8.00;;;7.70;;
908;SDS011;441;51.192;6.788;2024-01-30T03:04:09;8.27;;;7.97;;
908;SDS011;441;51.192;6.788;2024-01-30T03:06:36;8.10;;;7.80;;
908;SDS011;441;51.192;6.788;2024-01-30T03:09:03;8.57;;;8.23;;
908;SDS011;441;51.192;6.788;2024-01-30T03:11:30;8.67;;;8.37;;
908;SDS011;441;51.192;6.788;2024-01-30T03:13:58;8.63;;;8.33;;
908;SDS011;441;51.192;6.788;2024-01-30T03:16:25;8.77;;;8.37;;
908;SDS011;441;51.192;6.788;2024-01-30T03:18:52;8.40;;;8.10;;
908;SDS011;441;51.192;6.788;2024-01-30T03:21:19;8.27;;;7.97;;
908;SDS011;441;51.192;6.788;2024-01-30T03:23:46;8.57;;;8.13;;
908;SDS011;441;51.192;6.788;2024-01-30T03:26:13;8.30;;;8.00;;
908;SDS011;441;51.192;6.788;2024-01-30T03:28:41;8.03;;;7.73;;
908;SDS011;441;51.192;6.788;2024-01-30T03:31:09;8.53;;;8.13;;
908;SDS011;441;51.192;6.788;2024-01-30T03:33:36;7.90;;;7.60;;
908;SDS011;441;51.192;6.788;2024-01-30T03:36:04;8.00;;;7.60;;
908;SDS011;441;51.192;6.788;2024-01-30T03:38:32;7.37;;;7.10;;
908;SDS011;441;51.192;6.788;2024-01-30T03:40:59;8.27;;;7.87;;
908;SDS011;441;51.192;6.788;2024-01-30T03:43:26;8.13;;;7.83;;
908;SDS011;441;51.192;6.788;2024-01-30T03:45:53;7.90;;;7.60;;
908;SDS011;441;51.192;6.788;2024-01-30T03:48:21;7.40;;;7.20;;
908;SDS011;441;51.192;6.788;2024-01-30T03:50:48;7.67;;;7.37;;
908;SDS011;441;51.192;6.788;2024-01-30T03:53:15;8.13;;;7.83;;
908;SDS011;441;51.192;6.788;2024-01-30T03:55:42;6.80;;;6.50;;
908;SDS011;441;51.192;6.788;2024-01-30T03:58:08;8.33;;;7.93;;
908;SDS011;441;51.192;6.788;2024-01-30T04:00:35;8.03;;;7.73;;
908;SDS011;441;51.192;6.788;2024-01-30T04:03:02;8.00;;;7.70;;
908;SDS011;441;51.192;6.788;2024-01-30T04:05:31;8.70;;;8.20;;
908;SDS011;441;51.192;6.788;2024-01-30T04:07:58;7.90;;;7.60;;
908;SDS011;441;51.192;6.788;2024-01-30T04:10:25;8.13;;;7.83;;
908;SDS011;441;51.192;6.788;2024-01-30T04:12:52;7.60;;;7.30;;
908;SDS011;441;51.192;6.788;2024-01-30T04:15:19;7.40;;;7.20;;
908;SDS011;441;51.192;6.788;2024-01-30T04:17:46;7.57;;;7.27;;
908;SDS011;441;51.192;6.788;2024-01-30T04:20:13;7.40;;;7.10;;
908;SDS011;441;51.192;6.788;2024-01-30T04:22:43;7.23;;;7.03;;
908;SDS011;441;51.192;6.788;2024-01-30T04:25:10;7.30;;;7.03;;
908;SDS011;441;51.192;6.788;2024-01-30T04:27:37;8.60;;;8.30;;
908;SDS011;441;51.192;6.788;2024-01-30T04:30:04;8.33;;;7.93;;
908;SDS011;441;51.192;6.788;2024-01-30T04:32:32;8.00;;;7.70;;
908;SDS011;441;51.192;6.788;2024-01-30T04:34:59;7.33;;;7.13;;
908;SDS011;441;51.192;6.788;2024-01-30T04:37:26;8.57;;;8.20;;
908;SDS011;441;51.192;6.788;2024-01-30T04:39:54;7.30;;;7.10;;
908;SDS011;441;51.192;6.788;2024-01-30T04:42:21;7.70;;;7.40;;
908;SDS011;441;51.192;6.788;2024-01-30T04:44:48;7.93;;;7.63;;
908;SDS011;441;51.192;6.788;2024-01-30T04:47:15;9.20;;;8.80;;
908;SDS011;441;51.192;6.788;2024-01-30T04:49:42;8.20;;;7.87;;
908;SDS011;441;51.192;6.788;2024-01-30T04:52:09;7.67;;;7.37;;
908;SDS011;441;51.192;6.788;2024-01-30T04:54:36;8.10;;;7.70;;
908;SDS011;441;51.192;6.788;2024-01-30T04:57:04;7.43;;;7.23;;
908;SDS011;441;51.192;6.788;2024-01-30T04:59:34;8.83;;;8.50;;
908;SDS011;441;51.192;6.788;2024-01-30T05:02:01;9.00;;;8.63;;
908;SDS011;441;51.192;6.788;2024-01-30T05:04:28;8.60;;;8.27;;
908;SDS011;441;51.192;6.788;2024-01-30T05:06:55;7.80;;;7.60;;
908;SDS011;441;51.192;6.788;2024-01-30T05:09:22;7.60;;;7.40;;
908;SDS011;441;51.192;6.788;2024-01-30T05:11:49;7.90;;;7.60;;
908;SDS011;441;51.192;6.788;2024-01-30T05:14:17;9.27;;;8.87;;
908;SDS011;441;51.192;6.788;2024-01-30T05:16:44;9.10;;;8.70;;
908;SDS011;441;51.192;6.788;2024-01-30T05:19:12;8.67;;;8.33;;
908;SDS011;441;51.192;6.788;2024-01-30T05:21:40;7.70;;;7.40;;
908;SDS011;441;51.192;6.788;2024-01-30T05:24:07;8.73;;;8.43;;
908;SDS011;441;51.192;6.788;2024-01-30T05:26:35;7.90;;;7.70;;
908;SDS011;441;51.192;6.788;2024-01-30T05:29:02;8.20;;;7.97;;
908;SDS011;441;51.192;6.788;2024-01-30T05:31:30;8.37;;;8.07;;
908;SDS011;441;51.192;6.788;2024-01-30T05:33:57;8.67;;;8.47;;
908;SDS011;441;51.192;6.788;2024-01-30T05:36:24;8.10;;;7.90;;
908;SDS011;441;51.192;6.788;2024-01-30T05:38:51;8.53;;;8.23;;
908;SDS011;441;51.192;6.788;2024-01-30T05:41:18;10.27;;;9.57;;
908;SDS011;441;51.192;6.788;2024-01-30T05:43:46;14.23;;;10.67;;
908;SDS011;441;51.192;6.788;2024-01-30T05:46:13;14.67;;;13.20;;
908;SDS011;441;51.192;6.788;2024-01-30T05:48:41;12.23;;;11.40;;
908;SDS011;441;51.192;6.788;2024-01-30T05:51:08;13.43;;;12.20;;
908;SDS011;441;51.192;6.788;2024-01-30T05:53:35;20.83;;;11.53;;
908;SDS011;441;51.192;6.788;2024-01-30T05:56:02;16.80;;;10.20;;
908;SDS011;441;51.192;6.788;2024-01-30T05:58:29;16.47;;;11.10;;
908;SDS011;441;51.192;6.788;2024-01-30T06:00:57;21.33;;;13.30;;
908;SDS011;441;51.192;6.788;2024-01-30T06:03:24;20.33;;;12.83;;
908;SDS011;441;51.192;6.788;2024-01-30T06:05:52;13.43;;;12.40;;
908;SDS011;441;51.192;6.788;2024-01-30T06:08:19;12.33;;;11.20;;
908;SDS011;441;51.192;6.788;2024-01-30T06:10:45;18.00;;;13.57;;
908;SDS011;441;51.192;6.788;2024-01-30T06:13:12;13.70;;;11.40;;
908;SDS011;441;51.192;6.788;2024-01-30T06:15:40;12.90;;;11.60;;
908;SDS011;441;51.192;6.788;2024-01-30T06:18:07;11.50;;;10.60;;
908;SDS011;441;51.192;6.788;2024-01-30T06:20:34;12.90;;;11.40;;
908;SDS011;441;51.192;6.788;2024-01-30T06:23:03;12.27;;;10.67;;
908;SDS011;441;51.192;6.788;2024-01-30T06:25:30;13.90;;;12.60;;
908;SDS011;441;51.192;6.788;2024-01-30T06:27:57;14.03;;;13.07;;
908;SDS011;441;51.192;6.788;2024-01-30T06:30:23;15.63;;;10.80;;
908;SDS011;441;51.192;6.788;2024-01-30T06:32:50;10.67;;;9.63;;
908;SDS011;441;51.192;6.788;2024-01-30T06:35:17;16.10;;;13.63;;
908;SDS011;441;51.192;6.788;2024-01-30T06:37:44;11.20;;;10.40;;
908;SDS011;441;51.192;6.788;2024-01-30T06:40:13;11.20;;;10.50;;
908;SDS011;441;51.192;6.788;2024-01-30T06:42:40;10.83;;;9.90;;
908;SDS011;441;51.192;6.788;2024-01-30T06:45:07;10.40;;;9.57;;
908;SDS011;441;51.192;6.788;2024-01-30T06:47:34;10.87;;;9.23;;
908;SDS011;441;51.192;6.788;2024-01-30T06:50:01;9.37;;;8.57;;
908;SDS011;441;51.192;6.788;2024-01-30T06:52:28;11.43;;;9.73;;
908;SDS011;441;51.192;6.788;2024-01-30T06:54:55;11.00;;;9.67;;
908;SDS011;441;51.192;6.788;2024-01-30T06:57:23;9.43;;;8.63;;
908;SDS011;441;51.192;6.788;2024-01-30T06:59:53;9.03;;;8.43;;
908;SDS011;441;51.192;6.788;2024-01-30T07:02:21;11.27;;;9.73;;
908;SDS011;441;51.192;6.788;2024-01-30T07:04:47;16.67;;;9.30;;
908;SDS011;441;51.192;6.788;2024-01-30T07:07:14;10.03;;;9.40;;
908;SDS011;441;51.192;6.788;2024-01-30T07:09:41;12.00;;;8.87;;
908;SDS011;441;51.192;6.788;2024-01-30T07:12:08;9.70;;;8.57;;
908;SDS011;441;51.192;6.788;2024-01-30T07:14:36;8.87;;;8.27;;
908;SDS011;441;51.192;6.788;2024-01-30T07:17:03;10.10;;;9.30;;
908;SDS011;441;51.192;6.788;2024-01-30T07:19:31;9.00;;;8.30;;
908;SDS011;441;51.192;6.788;2024-01-30T07:21:59;10.50;;;9.80;;
908;SDS011;441;51.192;6.788;2024-01-30T07:24:26;13.47;;;9.50;;
908;SDS011;441;51.192;6.788;2024-01-30T07:26:53;9.67;;;9.27;;
908;SDS011;441;51.192;6.788;2024-01-30T07:29:20;9.90;;;9.10;;
908;SDS011;441;51.192;6.788;2024-01-30T07:31:48;10.30;;;9.73;;
908;SDS011;441;51.192;6.788;2024-01-30T07:34:15;11.20;;;10.43;;
908;SDS011;441;51.192;6.788;2024-01-30T07:36:42;10.00;;;9.40;;
908;SDS011;441;51.192;6.788;2024-01-30T07:39:09;10.93;;;10.10;;
908;SDS011;441;51.192;6.788;2024-01-30T07:41:36;11.27;;;10.67;;
908;SDS011;441;51.192;6.788;2024-01-30T07:44:03;10.27;;;9.60;;
908;SDS011;441;51.192;6.788;2024-01-30T07:46:30;10.13;;;9.57;;
908;SDS011;441;51.192;6.788;2024-01-30T07:48:58;10.03;;;9.30;;
908;SDS011;441;51.192;6.788;2024-01-30T07:51:25;10.47;;;9.97;;
908;SDS011;441;51.192;6.788;2024-01-30T07:53:53;10.07;;;9.43;;
908;SDS011;441;51.192;6.788;2024-01-30T07:56:20;10.50;;;9.83;;
908;SDS011;441;51.192;6.788;2024-01-30T07:58:47;10.90;;;10.10;;
908;SDS011;441;51.192;6.788;2024-01-30T08:01:14;9.80;;;9.00;;
908;SDS011;441;51.192;6.788;2024-01-30T08:03:41;10.37;;;9.77;;
908;SDS011;441;51.192;6.788;2024-01-30T08:06:09;10.87;;;10.07;;
908;SDS011;441;51.192;6.788;2024-01-30T08:08:36;9.90;;;9.37;;
908;SDS011;441;51.192;6.788;2024-01-30T08:11:03;10.10;;;9.40;;
908;SDS011;441;51.192;6.788;2024-01-30T08:13:30;9.47;;;8.87;;
908;SDS011;441;51.192;6.788;2024-01-30T08:15:57;9.83;;;9.40;;
908;SDS011;441;51.192;6.788;2024-01-30T08:18:24;11.07;;;10.10;;
908;SDS011;441;51.192;6.788;2024-01-30T08:20:51;9.70;;;9.23;;
908;SDS011;441;51.192;6.788;2024-01-30T08:23:19;9.63;;;9.13;;
908;SDS011;441;51.192;6.788;2024-01-30T08:25:46;9.90;;;9.40;;
908;SDS011;441;51.192;6.788;2024-01-30T08:28:13;9.97;;;9.20;;
908;SDS011;441;51.192;6.788;2024-01-30T08:30:40;9.50;;;9.10;;
908;SDS011;441;51.192;6.788;2024-01-30T08:33:07;8.10;;;7.77;;
908;SDS011;441;51.192;6.788;2024-01-30T08:35:34;8.53;;;8.13;;
908;SDS011;441;51.192;6.788;2024-01-30T08:38:01;9.70;;;9.30;;
908;SDS011;441;51.192;6.788;2024-01-30T08:40:29;9.63;;;9.23;;
908;SDS011;441;51.192;6.788;2024-01-30T08:42:56;9.20;;;8.80;;
908;SDS011;441;51.192;6.788;2024-01-30T08:45:23;9.20;;;8.60;;
908;SDS011;441;51.192;6.788;2024-01-30T08:47:50;9.43;;;8.93;;
908;SDS011;441;51.192;6.788;2024-01-30T08:50:17;8.47;;;8.17;;
908;SDS011;441;51.192;6.788;2024-01-30T08:52:44;9.00;;;8.50;;
908;SDS011;441;51.192;6.788;2024-01-30T08:55:11;9.33;;;8.93;;
908;SDS011;441;51.192;6.788;2024-01-30T08:57:39;10.13;;;9.63;;
908;SDS011;441;51.192;6.788;2024-01-30T09:00:06;9.20;;;8.80;;
908;SDS011;441;51.192;6.788;2024-01-30T09:02:35;9.47;;;9.00;;
908;SDS011;441;51.192;6.788;2024-01-30T09:05:02;9.57;;;9.10;;
908;SDS011;441;51.192;6.788;2024-01-30T09:07:29;8.70;;;8.40;;
908;SDS011;441;51.192;6.788;2024-01-30T09:09:56;9.60;;;9.10;;
908;SDS011;441;51.192;6.788;2024-01-30T09:12:23;9.80;;;9.30;;
908;SDS011;441;51.192;6.788;2024-01-30T09:14:51;9.60;;;9.20;;
908;SDS011;441;51.192;6.788;2024-01-30T09:17:18;9.43;;;9.13;;
908;SDS011;441;51.192;6.788;2024-01-30T09:19:46;10.20;;;9.77;;
908;SDS011;441;51.192;6.788;2024-01-30T09:22:13;10.90;;;10.30;;
908;SDS011;441;51.192;6.788;2024-01-30T09:24:40;10.67;;;10.27;;
908;SDS011;441;51.192;6.788;2024-01-30T09:27:06;8.93;;;8.60;;
908;SDS011;441;51.192;6.788;2024-01-30T09:29:33;9.47;;;9.17;;
908;SDS011;441;51.192;6.788;2024-01-30T09:32:03;9.47;;;9.20;;
908;SDS011;441;51.192;6.788;2024-01-30T09:34:31;10.10;;;9.70;;
908;SDS011;441;51.192;6.788;2024-01-30T09:36:58;10.10;;;9.30;;
908;SDS011;441;51.192;6.788;2024-01-30T09:39:25;9.27;;;8.73;;
908;SDS011;441;51.192;6.788;2024-01-30T09:41:54;9.50;;;9.10;;
908;SDS011;441;51.192;6.788;2024-01-30T09:44:29;9.73;;;9.43;;
908;SDS011;441;51.192;6.788;2024-01-30T09:46:56;9.90;;;9.20;;
908;SDS011;441;51.192;6.788;2024-01-30T09:49:30;9.83;;;9.43;;
908;SDS011;441;51.192;6.788;2024-01-30T09:51:59;9.43;;;9.13;;
908;SDS011;441;51.192;6.788;2024-01-30T09:54:26;9.53;;;9.17;;
908;SDS011;441;51.192;6.788;2024-01-30T09:56:56;9.07;;;8.77;;
908;SDS011;441;51.192;6.788;2024-01-30T09:59:23;9.87;;;9.47;;
908;SDS011;441;51.192;6.788;2024-01-30T10:01:50;9.87;;;9.50;;
908;SDS011;441;51.192;6.788;2024-01-30T10:04:17;10.30;;;10.00;;
908;SDS011;441;51.192;6.788;2024-01-30T10:06:45;10.00;;;9.70;;
908;SDS011;441;51.192;6.788;2024-01-30T10:09:13;9.60;;;8.90;;
908;SDS011;441;51.192;6.788;2024-01-30T10:11:40;10.07;;;9.57;;
908;SDS011;441;51.192;6.788;2024-01-30T10:14:07;11.27;;;10.57;;
908;SDS011;441;51.192;6.788;2024-01-30T10:16:34;10.03;;;9.73;;
908;SDS011;441;51.192;6.788;2024-01-30T10:19:01;10.80;;;10.40;;
908;SDS011;441;51.192;6.788;2024-01-30T10:21:29;10.70;;;10.20;;
908;SDS011;441;51.192;6.788;2024-01-30T10:23:58;10.23;;;9.93;;
908;SDS011;441;51.192;6.788;2024-01-30T10:26:26;9.80;;;9.60;;
908;SDS011;441;51.192;6.788;2024-01-30T10:28:54;10.20;;;9.90;;
908;SDS011;441;51.192;6.788;2024-01-30T10:31:21;10.73;;;10.13;;
908;SDS011;441;51.192;6.788;2024-01-30T10:33:49;10.50;;;10.00;;
908;SDS011;441;51.192;6.788;2024-01-30T10:36:16;9.20;;;8.90;;
908;SDS011;441;51.192;6.788;2024-01-30T10:38:44;9.90;;;9.50;;
908;SDS011;441;51.192;6.788;2024-01-30T10:41:14;9.90;;;9.50;;
908;SDS011;441;51.192;6.788;2024-01-30T10:43:54;10.40;;;10.00;;
908;SDS011;441;51.192;6.788;2024-01-30T10:46:37;9.87;;;9.47;;
908;SDS011;441;51.192;6.788;2024-01-30T10:49:04;9.67;;;9.40;;
908;SDS011;441;51.192;6.788;2024-01-30T10:51:32;9.47;;;9.17;;
908;SDS011;441;51.192;6.788;2024-01-30T10:54:00;9.90;;;9.60;;
908;SDS011;441;51.192;6.788;2024-01-30T10:56:30;9.80;;;9.30;;
908;SDS011;441;51.192;6.788;2024-01-30T10:58:59;9.20;;;8.90;;
908;SDS011;441;51.192;6.788;2024-01-30T11:01:26;9.07;;;8.77;;
908;SDS011;441;51.192;6.788;2024-01-30T11:03:54;9.53;;;9.23;;
908;SDS011;441;51.192;6.788;2024-01-30T11:06:22;8.97;;;8.57;;
908;SDS011;441;51.192;6.788;2024-01-30T11:09:00;9.13;;;8.83;;
908;SDS011;441;51.192;6.788;2024-01-30T11:11:30;10.10;;;9.73;;
908;SDS011;441;51.192;6.788;2024-01-30T11:14:00;9.80;;;9.50;;
908;SDS011;441;51.192;6.788;2024-01-30T11:16:30;9.80;;;9.50;;
908;SDS011;441;51.192;6.788;2024-01-30T11:19:00;9.67;;;9.27;;
908;SDS011;441;51.192;6.788;2024-01-30T11:21:27;9.73;;;9.43;;
908;SDS011;441;51.192;6.788;2024-01-30T11:23:54;9.07;;;8.63;;
908;SDS011;441;51.192;6.788;2024-01-30T11:26:23;8.87;;;8.67;;
908;SDS011;441;51.192;6.788;2024-01-30T11:28:55;9.53;;;9.23;;
908;SDS011;441;51.192;6.788;2024-01-30T11:31:22;8.67;;;8.37;;
908;SDS011;441;51.192;6.788;2024-01-30T11:33:52;8.50;;;8.20;;
908;SDS011;441;51.192;6.788;2024-01-30T11:36:20;9.90;;;9.57;;
908;SDS011;441;51.192;6.788;2024-01-30T11:38:50;9.50;;;9.20;;
908;SDS011;441;51.192;6.788;2024-01-30T11:41:17;9.17;;;8.67;;
908;SDS011;441;51.192;6.788;2024-01-30T11:43:50;10.00;;;9.70;;
908;SDS011;441;51.192;6.788;2024-01-30T11:46:19;9.00;;;8.70;;
908;SDS011;441;51.192;6.788;2024-01-30T11:48:46;9.70;;;9.50;;
908;SDS011;441;51.192;6.788;2024-01-30T11:51:13;9.83;;;9.40;;
908;SDS011;441;51.192;6.788;2024-01-30T11:53:41;8.57;;;8.37;;
908;SDS011;441;51.192;6.788;2024-01-30T11:56:08;9.40;;;9.10;;
908;SDS011;441;51.192;6.788;2024-01-30T11:58:34;8.63;;;8.33;;
908;SDS011;441;51.192;6.788;2024-01-30T12:01:01;8.83;;;8.53;;
908;SDS011;441;51.192;6.788;2024-01-30T12:03:30;9.57;;;9.17;;
908;SDS011;441;51.192;6.788;2024-01-30T12:05:57;9.40;;;9.10;;
908;SDS011;441;51.192;6.788;2024-01-30T12:08:24;8.97;;;8.57;;
908;SDS011;441;51.192;6.788;2024-01-30T12:10:55;7.80;;;7.60;;
908;SDS011;441;51.192;6.788;2024-01-30T12:13:23;8.60;;;8.30;;
908;SDS011;441;51.192;6.788;2024-01-30T12:15:51;7.97;;;7.77;;
908;SDS011;441;51.192;6.788;2024-01-30T12:18:18;9.03;;;8.73;;
908;SDS011;441;51.192;6.788;2024-01-30T12:20:57;9.20;;;8.90;;
908;SDS011;441;51.192;6.788;2024-01-30T12:23:24;8.47;;;8.27;;
908;SDS011;441;51.192;6.788;2024-01-30T12:25:52;8.80;;;8.50;;
908;SDS011;441;51.192;6.788;2024-01-30T12:28:19;8.83;;;8.60;;
908;SDS011;441;51.192;6.788;2024-01-30T12:30:46;8.53;;;8.33;;
908;SDS011;441;51.192;6.788;2024-01-30T12:33:15;8.60;;;8.30;;
908;SDS011;441;51.192;6.788;2024-01-30T12:35:45;8.47;;;8.20;;
908;SDS011;441;51.192;6.788;2024-01-30T12:38:14;9.33;;;9.03;;
908;SDS011;441;51.192;6.788;2024-01-30T12:40:41;8.30;;;8.00;;
908;SDS011;441;51.192;6.788;2024-01-30T12:43:08;9.40;;;9.10;;
908;SDS011;441;51.192;6.788;2024-01-30T12:45:35;9.37;;;9.10;;
908;SDS011;441;51.192;6.788;2024-01-30T12:48:02;8.53;;;8.33;;
908;SDS011;441;51.192;6.788;2024-01-30T12:50:30;8.73;;;8.53;;
908;SDS011;441;51.192;6.788;2024-01-30T12:52:57;8.83;;;8.53;;
908;SDS011;441;51.192;6.788;2024-01-30T12:55:25;8.27;;;8.00;;
908;SDS011;441;51.192;6.788;2024-01-30T12:57:53;8.37;;;8.17;;
908;SDS011;441;51.192;6.788;2024-01-30T13:00:20;8.80;;;8.60;;
908;SDS011;441;51.192;6.788;2024-01-30T13:02:47;9.40;;;9.10;;
908;SDS011;441;51.192;6.788;2024-01-30T13:05:14;8.07;;;7.87;;
908;SDS011;441;51.192;6.788;2024-01-30T13:07:41;8.63;;;8.37;;
908;SDS011;441;51.192;6.788;2024-01-30T13:10:09;8.20;;;8.00;;
908;SDS011;441;51.192;6.788;2024-01-30T13:12:37;8.07;;;7.87;;
908;SDS011;441;51.192;6.788;2024-01-30T13:15:05;7.80;;;7.60;;
908;SDS011;441;51.192;6.788;2024-01-30T13:17:32;8.10;;;7.80;;
908;SDS011;441;51.192;6.788;2024-01-30T13:19:59;8.43;;;8.13;;
908;SDS011;441;51.192;6.788;2024-01-30T13:22:26;8.20;;;7.90;;
908;SDS011;441;51.192;6.788;2024-01-30T13:24:53;7.87;;;7.67;;
908;SDS011;441;51.192;6.788;2024-01-30T13:27:20;8.53;;;8.23;;
908;SDS011;441;51.192;6.788;2024-01-30T13:29:49;8.27;;;8.03;;
908;SDS011;441;51.192;6.788;2024-01-30T13:32:16;9.40;;;9.03;;
908;SDS011;441;51.192;6.788;2024-01-30T13:34:42;9.70;;;9.40;;
908;SDS011;441;51.192;6.788;2024-01-30T13:37:09;8.53;;;8.33;;
908;SDS011;441;51.192;6.788;2024-01-30T13:39:36;8.93;;;8.63;;
908;SDS011;441;51.192;6.788;2024-01-30T13:42:05;8.87;;;8.47;;
908;SDS011;441;51.192;6.788;2024-01-30T13:44:32;10.17;;;9.77;;
908;SDS011;441;51.192;6.788;2024-01-30T13:47:01;8.33;;;8.13;;
908;SDS011;441;51.192;6.788;2024-01-30T13:49:28;8.70;;;8.40;;
908;SDS011;441;51.192;6.788;2024-01-30T13:51:55;8.77;;;8.57;;
908;SDS011;441;51.192;6.788;2024-01-30T13:54:23;9.00;;;8.70;;
908;SDS011;441;51.192;6.788;2024-01-30T13:56:50;10.03;;;9.73;;
908;SDS011;441;51.192;6.788;2024-01-30T13:59:17;9.10;;;8.80;;
908;SDS011;441;51.192;6.788;2024-01-30T14:01:48;9.93;;;9.63;;
908;SDS011;441;51.192;6.788;2024-01-30T14:04:17;8.60;;;8.40;;
908;SDS011;441;51.192;6.788;2024-01-30T14:06:44;9.03;;;8.80;;
908;SDS011;441;51.192;6.788;2024-01-30T14:09:11;9.10;;;8.80;;
908;SDS011;441;51.192;6.788;2024-01-30T14:11:40;8.60;;;8.40;;
908;SDS011;441;51.192;6.788;2024-01-30T14:14:07;9.30;;;9.00;;
908;SDS011;441;51.192;6.788;2024-01-30T14:16:35;8.83;;;8.53;;
908;SDS011;441;51.192;6.788;2024-01-30T14:19:02;9.13;;;8.80;;
908;SDS011;441;51.192;6.788;2024-01-30T14:21:30;8.77;;;8.57;;
908;SDS011;441;51.192;6.788;2024-01-30T14:23:57;8.70;;;8.50;;
908;SDS011;441;51.192;6.788;2024-01-30T14:26:24;8.23;;;8.03;;
908;SDS011;441;51.192;6.788;2024-01-30T14:28:51;8.60;;;8.33;;
908;SDS011;441;51.192;6.788;2024-01-30T14:31:18;9.20;;;8.90;;
908;SDS011;441;51.192;6.788;2024-01-30T14:33:45;8.83;;;8.63;;
908;SDS011;441;51.192;6.788;2024-01-30T14:36:12;9.60;;;9.30;;
908;SDS011;441;51.192;6.788;2024-01-30T14:38:41;9.00;;;8.70;;
908;SDS011;441;51.192;6.788;2024-01-30T14:41:08;8.63;;;8.13;;
908;SDS011;441;51.192;6.788;2024-01-30T14:43:35;8.83;;;8.63;;
908;SDS011;441;51.192;6.788;2024-01-30T14:46:03;11.33;;;10.93;;
908;SDS011;441;51.192;6.788;2024-01-30T14:48:31;10.40;;;10.13;;
908;SDS011;441;51.192;6.788;2024-01-30T14:50:58;10.20;;;9.90;;
908;SDS011;441;51.192;6.788;2024-01-30T14:53:25;11.07;;;10.77;;
908;SDS011;441;51.192;6.788;2024-01-30T14:55:54;10.90;;;10.50;;
908;SDS011;441;51.192;6.788;2024-01-30T14:58:21;11.47;;;11.10;;
908;SDS011;441;51.192;6.788;2024-01-30T15:00:48;11.00;;;10.70;;
908;SDS011;441;51.192;6.788;2024-01-30T15:03:14;10.77;;;10.47;;
908;SDS011;441;51.192;6.788;2024-01-30T15:05:42;10.97;;;10.50;;
908;SDS011;441;51.192;6.788;2024-01-30T15:08:09;12.43;;;12.03;;
908;SDS011;441;51.192;6.788;2024-01-30T15:10:39;12.27;;;11.90;;
908;SDS011;441;51.192;6.788;2024-01-30T15:13:07;12.20;;;11.80;;
908;SDS011;441;51.192;6.788;2024-01-30T15:15:34;12.13;;;11.83;;
908;SDS011;441;51.192;6.788;2024-01-30T15:18:01;12.53;;;12.23;;
908;SDS011;441;51.192;6.788;2024-01-30T15:20:28;12.10;;;11.70;;
908;SDS011;441;51.192;6.788;2024-01-30T15:22:56;11.30;;;11.00;;
908;SDS011;441;51.192;6.788;2024-01-30T15:25:23;11.70;;;11.30;;
908;SDS011;441;51.192;6.788;2024-01-30T15:27:50;11.50;;;11.20;;
908;SDS011;441;51.192;6.788;2024-01-30T15:30:18;13.10;;;12.60;;
908;SDS011;441;51.192;6.788;2024-01-30T15:32:46;11.90;;;11.50;;
908;SDS011;441;51.192;6.788;2024-01-30T15:35:13;11.00;;;10.70;;
908;SDS011;441;51.192;6.788;2024-01-30T15:37:40;10.37;;;10.07;;
908;SDS011;441;51.192;6.788;2024-01-30T15:40:07;11.10;;;10.70;;
908;SDS011;441;51.192;6.788;2024-01-30T15:42:37;11.43;;;11.13;;